Time;durP1;ratioP1;P1;durP2;ratioP2;P2;SDS_P1;SDS_P2;PMS_P1;PMS_P2;Temp;Humidity;BMP_temperature;BMP_pressure;BME280_temperature;BME280_humidity;BME280_pressure;Samples;Min_cycle;Max_cycle;Signal;HPM_P1;HPM_P2
2021/09/11 00:00:01;;;;;;;9.77;4.30;;;;;;;14.35;61.64;100324.56;5069525;28;20039;-22
2021/09/11 00:02:26;;;;;;;10.88;4.88;;;;;;;14.43;60.87;100322.31;5069126;28;20443;-22
2021/09/11 00:04:52;;;;;;;8.18;4.45;;;;;;;14.77;59.79;100324.31;5069435;28;20446;-22
2021/09/11 00:07:17;;;;;;;11.88;4.90;;;;;;;14.63;60.54;100331.88;5051442;28;20032;-22
2021/09/11 00:09:43;;;;;;;8.73;4.78;;;;;;;15.22;58.75;100329.72;5069094;28;20028;-21
2021/09/11 00:12:09;;;;;;;11.52;5.30;;;;;;;14.76;59.56;100326.19;5069109;28;20036;-21
2021/09/11 00:14:35;;;;;;;8.27;5.05;;;;;;;14.45;60.66;100324.78;5069040;28;20402;-22
2021/09/11 00:17:00;;;;;;;10.35;6.05;;;;;;;14.39;60.81;100304.25;5068967;28;20031;-21
2021/09/11 00:19:26;;;;;;;8.13;4.35;;;;;;;14.53;59.61;100310.19;5069021;28;20029;-21
2021/09/11 00:21:51;;;;;;;12.30;6.65;;;;;;;14.52;60.51;100325.44;5069171;28;20040;-21
2021/09/11 00:24:17;;;;;;;12.93;6.15;;;;;;;14.06;61.01;100306.56;5050759;28;20028;-22
2021/09/11 00:26:42;;;;;;;13.60;6.32;;;;;;;14.69;60.00;100325.53;5068893;28;20032;-21
2021/09/11 00:29:08;;;;;;;12.32;6.20;;;;;;;14.05;61.96;100307.59;5068917;28;20369;-22
2021/09/11 00:31:33;;;;;;;11.82;5.70;;;;;;;13.33;64.42;100317.75;5068767;28;20035;-22
2021/09/11 00:33:59;;;;;;;18.08;8.52;;;;;;;13.00;65.03;100324.41;5068872;28;20025;-22
2021/09/11 00:36:24;;;;;;;17.25;8.48;;;;;;;13.87;62.14;100329.16;5068713;28;20036;-22
2021/09/11 00:38:50;;;;;;;11.77;6.63;;;;;;;13.79;62.29;100332.22;5068396;28;20047;-21
2021/09/11 00:41:15;;;;;;;16.75;7.80;;;;;;;13.75;62.28;100333.72;5068759;28;20033;-22
2021/09/11 00:43:45;;;;;;;13.73;6.80;;;;;;;14.37;60.54;100338.56;5068245;28;20031;-21
2021/09/11 00:46:11;;;;;;;8.30;5.45;;;;;;;14.79;58.81;100331.09;5050899;28;20396;-22
2021/09/11 00:48:36;;;;;;;9.43;5.28;;;;;;;14.62;59.32;100341.78;5068721;28;20123;-22
2021/09/11 00:51:02;;;;;;;9.82;5.75;;;;;;;14.42;60.36;100338.66;5068375;28;20086;-21
2021/09/11 00:53:27;;;;;;;11.32;5.72;;;;;;;13.84;62.13;100337.69;5033271;28;20231;-22
2021/09/11 00:55:53;;;;;;;11.55;6.28;;;;;;;13.98;61.58;100320.31;5067918;28;20032;-22
2021/09/11 00:58:18;;;;;;;10.40;6.57;;;;;;;13.80;62.56;100325.81;5050297;28;20041;-22
2021/09/11 01:00:44;;;;;;;10.38;5.45;;;;;;;13.54;64.05;100332.44;5017099;28;20028;-21
2021/09/11 01:03:10;;;;;;;11.52;5.85;;;;;;;13.94;62.31;100334.44;5067937;28;20035;-22
2021/09/11 01:05:35;;;;;;;10.07;5.72;;;;;;;14.25;60.45;100338.59;5068032;28;20690;-21
2021/09/11 01:08:01;;;;;;;10.52;5.95;;;;;;;14.07;61.35;100337.66;5049889;28;20090;-23
2021/09/11 01:10:26;;;;;;;10.65;6.10;;;;;;;14.43;59.99;100335.75;5068260;28;20033;-22
2021/09/11 01:12:52;;;;;;;18.42;6.50;;;;;;;14.80;59.16;100356.88;5068087;28;20091;-22
2021/09/11 01:15:17;;;;;;;13.50;6.43;;;;;;;14.90;58.48;100352.78;5068070;28;20028;-21
2021/09/11 01:17:43;;;;;;;10.75;6.63;;;;;;;14.72;59.44;100351.91;5067626;28;20040;-21
2021/09/11 01:20:09;;;;;;;9.63;6.25;;;;;;;13.65;62.54;100321.72;5067826;28;20907;-22
2021/09/11 01:22:35;;;;;;;10.57;5.97;;;;;;;13.48;63.48;100330.69;5067680;28;20135;-21
2021/09/11 01:25:05;;;;;;;13.73;6.10;;;;;;;13.13;65.12;100340.25;5067818;28;20103;-22
2021/09/11 01:27:31;;;;;;;13.00;6.53;;;;;;;12.96;65.89;100341.97;5067954;28;20123;-21
2021/09/11 01:30:02;;;;;;;10.45;5.70;;;;;;;13.34;64.38;100348.81;5067245;28;20123;-22
2021/09/11 01:32:28;;;;;;;9.82;5.55;;;;;;;12.58;66.47;100317.13;5067755;28;20041;-21
2021/09/11 01:34:53;;;;;;;9.20;5.72;;;;;;;12.51;66.31;100326.31;5067882;28;20709;-22
2021/09/11 01:37:19;;;;;;;13.57;6.97;;;;;;;12.32;66.57;100338.84;5067715;28;20043;-22
2021/09/11 01:39:49;;;;;;;11.35;6.72;;;;;;;12.12;66.94;100329.22;5049383;28;20028;-21
2021/09/11 01:42:21;;;;;;;13.35;6.57;;;;;;;12.19;66.95;100334.47;5067596;28;20214;-22
2021/09/11 01:44:55;;;;;;;10.45;6.28;;;;;;;12.63;64.62;100321.81;5067636;28;20484;-21
2021/09/11 01:47:21;;;;;;;10.60;5.95;;;;;;;12.94;64.19;100346.72;5068075;28;20145;-22
2021/09/11 01:49:46;;;;;;;14.25;6.32;;;;;;;13.23;62.99;100335.16;5049368;28;20463;-22
2021/09/11 01:52:12;;;;;;;11.82;7.13;;;;;;;13.62;61.56;100327.53;5066987;28;20484;-21
2021/09/11 01:54:38;;;;;;;10.60;6.25;;;;;;;13.74;60.56;100334.78;5067216;28;20036;-22
2021/09/11 01:57:05;;;;;;;14.02;6.50;;;;;;;13.81;59.47;100330.09;5067242;28;20035;-21
2021/09/11 01:59:30;;;;;;;54.00;9.52;;;;;;;13.81;59.25;100327.44;5067092;28;20537;-22
2021/09/11 02:01:56;;;;;;;14.35;7.65;;;;;;;13.30;61.16;100328.91;5066959;28;20029;-22
2021/09/11 02:04:21;;;;;;;12.38;6.90;;;;;;;12.61;63.21;100321.22;5067167;28;20147;-21
2021/09/11 02:06:47;;;;;;;12.52;6.28;;;;;;;12.17;64.87;100320.50;5067542;28;20488;-22
2021/09/11 02:09:12;;;;;;;12.30;6.18;;;;;;;11.95;66.23;100325.47;5049421;28;20051;-22
2021/09/11 02:11:38;;;;;;;16.02;6.40;;;;;;;11.91;66.31;100335.81;5067137;28;20033;-22
2021/09/11 02:14:03;;;;;;;12.60;6.07;;;;;;;11.64;66.90;100333.34;5067104;28;20024;-22
2021/09/11 02:16:29;;;;;;;10.88;6.07;;;;;;;11.41;67.83;100335.81;5066778;28;20043;-21
2021/09/11 02:18:54;;;;;;;13.68;6.28;;;;;;;12.26;66.06;100340.59;5066661;28;20396;-22
2021/09/11 02:21:20;;;;;;;13.90;6.43;;;;;;;12.61;63.74;100345.31;5067017;28;20029;-22
2021/09/11 02:23:45;;;;;;;11.18;6.07;;;;;;;12.85;63.26;100328.31;5066880;28;20040;-22
2021/09/11 02:26:11;;;;;;;9.93;6.72;;;;;;;12.78;65.04;100338.28;5066831;28;20074;-22
2021/09/11 02:28:36;;;;;;;12.52;7.28;;;;;;;12.68;66.10;100338.00;5067223;28;20048;-21
2021/09/11 02:31:02;;;;;;;10.95;7.88;;;;;;;12.63;67.02;100343.22;5048813;28;20024;-21
2021/09/11 02:33:27;;;;;;;11.75;7.60;;;;;;;12.50;67.68;100338.03;5066883;28;20032;-22
2021/09/11 02:35:53;;;;;;;10.65;7.82;;;;;;;12.89;66.46;100341.22;5066577;28;20021;-22
2021/09/11 02:38:19;;;;;;;12.18;7.80;;;;;;;12.96;66.31;100324.03;5066879;28;20036;-22
2021/09/11 02:40:44;;;;;;;10.38;7.68;;;;;;;12.94;66.02;100336.81;5066794;28;20025;-22
2021/09/11 02:43:10;;;;;;;9.77;7.68;;;;;;;13.23;64.46;100327.13;5048917;28;20039;-22
2021/09/11 02:45:35;;;;;;;15.00;9.07;;;;;;;12.99;65.18;100333.47;5066940;28;20500;-21
2021/09/11 02:48:00;;;;;;;19.45;11.05;;;;;;;13.15;65.28;100338.16;5066778;28;20032;-22
2021/09/11 02:50:26;;;;;;;22.65;11.55;;;;;;;13.00;65.51;100333.25;5066670;28;20036;-22
2021/09/11 02:52:51;;;;;;;20.13;10.23;;;;;;;12.98;65.98;100331.84;5066560;28;20048;-22
2021/09/11 02:55:17;;;;;;;18.83;8.60;;;;;;;12.81;66.66;100337.84;5066505;28;20035;-22
2021/09/11 02:57:42;;;;;;;13.82;8.80;;;;;;;12.45;68.62;100334.16;5066530;28;20094;-22
2021/09/11 03:00:08;;;;;;;18.83;8.23;;;;;;;12.96;66.81;100339.28;5066704;28;20411;-22
2021/09/11 03:02:34;;;;;;;12.70;7.03;;;;;;;12.82;67.57;100334.09;5066903;28;20028;-22
2021/09/11 03:04:59;;;;;;;11.35;7.57;;;;;;;12.77;67.07;100323.28;5066877;28;20024;-22
2021/09/11 03:07:25;;;;;;;15.52;8.00;;;;;;;13.38;65.20;100341.97;5066905;28;20036;-21
2021/09/11 03:09:50;;;;;;;11.65;7.32;;;;;;;13.53;64.37;100330.81;5066102;28;20498;-22
2021/09/11 03:12:16;;;;;;;13.40;7.70;;;;;;;13.42;64.65;100335.09;5048641;28;20040;-21
2021/09/11 03:14:41;;;;;;;12.65;8.20;;;;;;;13.43;64.41;100315.31;5067046;28;20403;-22
2021/09/11 03:17:06;;;;;;;15.68;7.40;;;;;;;13.32;65.00;100337.53;5066511;28;20044;-21
2021/09/11 03:19:32;;;;;;;13.98;7.45;;;;;;;13.11;65.34;100336.19;5048865;28;20049;-22
2021/09/11 03:21:58;;;;;;;12.88;7.75;;;;;;;12.82;66.38;100344.81;5066271;28;20064;-22
2021/09/11 03:24:23;;;;;;;11.68;7.78;;;;;;;12.89;66.56;100343.91;5066299;28;20020;-22
2021/09/11 03:26:49;;;;;;;10.60;7.38;;;;;;;12.55;67.75;100332.84;5066425;28;20484;-22
2021/09/11 03:29:14;;;;;;;10.88;7.20;;;;;;;11.95;68.21;100315.63;5067164;28;20029;-21
2021/09/11 03:31:40;;;;;;;12.35;7.40;;;;;;;11.95;67.06;100334.34;5069580;28;20098;-22
2021/09/11 03:34:05;;;;;;;12.90;7.15;;;;;;;11.66;69.52;100336.59;5069874;28;20089;-22
2021/09/11 03:36:31;;;;;;;11.27;6.95;;;;;;;11.76;68.91;100324.63;5069699;28;20029;-22
2021/09/11 03:38:56;;;;;;;11.07;8.13;;;;;;;12.12;68.98;100345.25;5069715;28;20025;-22
2021/09/11 03:41:22;;;;;;;12.30;7.93;;;;;;;12.03;69.14;100330.53;5069548;28;20086;-22
2021/09/11 03:43:47;;;;;;;10.93;7.32;;;;;;;12.33;67.00;100335.16;5069457;28;20035;-21
2021/09/11 03:46:13;;;;;;;12.13;8.18;;;;;;;12.88;65.81;100358.34;5069794;28;20055;-22
2021/09/11 03:48:38;;;;;;;14.00;8.65;;;;;;;13.04;64.49;100353.16;5069892;28;20036;-22
2021/09/11 03:51:03;;;;;;;12.65;8.85;;;;;;;12.97;64.86;100359.63;5051724;28;20048;-22
2021/09/11 03:53:29;;;;;;;14.88;9.55;;;;;;;13.16;63.93;100342.50;5069272;28;20435;-21
2021/09/11 03:55:54;;;;;;;16.33;9.43;;;;;;;12.76;65.69;100355.59;5069167;28;20031;-22
2021/09/11 03:58:20;;;;;;;15.20;9.30;;;;;;;11.89;67.95;100356.59;5069466;28;20033;-21
2021/09/11 04:00:45;;;;;;;23.58;8.73;;;;;;;11.44;68.10;100362.91;5069569;28;20468;-22
2021/09/11 04:03:11;;;;;;;25.85;10.00;;;;;;;12.00;65.96;100347.84;5069208;28;20028;-21
2021/09/11 04:05:36;;;;;;;24.10;10.13;;;;;;;12.09;66.89;100347.53;5069242;28;20024;-21
2021/09/11 04:08:02;;;;;;;15.95;8.88;;;;;;;12.18;66.39;100343.56;5069277;28;20438;-22
2021/09/11 04:10:27;;;;;;;17.58;8.88;;;;;;;11.45;68.34;100350.34;5051054;28;20549;-22
2021/09/11 04:12:53;;;;;;;14.85;9.48;;;;;;;11.56;68.35;100346.16;5051202;28;20033;-22
2021/09/11 04:15:18;;;;;;;15.32;10.40;;;;;;;11.49;69.57;100366.78;5068948;28;20108;-22
2021/09/11 04:17:44;;;;;;;15.90;10.30;;;;;;;11.30;70.42;100363.19;5068961;28;20481;-21
2021/09/11 04:20:10;;;;;;;36.75;11.80;;;;;;;11.71;69.47;100361.84;5068945;28;20036;-21
2021/09/11 04:22:35;;;;;;;15.05;9.82;;;;;;;12.13;68.21;100346.06;5069151;28;20025;-21
2021/09/11 04:25:01;;;;;;;18.35;10.30;;;;;;;12.06;68.90;100357.63;5069200;28;20031;-21
2021/09/11 04:27:26;;;;;;;18.55;10.57;;;;;;;12.35;67.58;100339.22;5068989;28;20029;-21
2021/09/11 04:29:52;;;;;;;18.48;11.00;;;;;;;12.53;67.35;100343.75;5050849;28;20032;-21
2021/09/11 04:32:17;;;;;;;15.18;10.68;;;;;;;12.35;68.59;100359.81;5051275;28;20036;-22
2021/09/11 04:34:43;;;;;;;19.77;11.50;;;;;;;12.78;67.20;100362.34;5068680;28;20101;-22
2021/09/11 04:37:08;;;;;;;21.77;11.80;;;;;;;12.84;66.77;100369.47;5068931;28;20052;-21
2021/09/11 04:39:34;;;;;;;32.75;11.70;;;;;;;13.09;65.84;100373.88;5068383;28;20040;-22
2021/09/11 04:41:59;;;;;;;17.30;9.63;;;;;;;12.80;67.28;100357.59;5068069;28;20039;-22
2021/09/11 04:44:27;;;;;;;15.63;10.15;;;;;;;12.74;67.79;100371.88;5068526;28;20028;-21
2021/09/11 04:46:53;;;;;;;14.25;9.52;;;;;;;12.71;68.54;100348.25;5068360;28;20121;-22
2021/09/11 04:49:18;;;;;;;24.50;11.45;;;;;;;12.94;67.89;100368.13;5068521;28;20052;-22
2021/09/11 04:51:44;;;;;;;16.00;10.23;;;;;;;13.49;65.99;100365.28;5068325;28;20029;-21
2021/09/11 04:54:09;;;;;;;12.48;8.80;;;;;;;13.81;65.07;100367.63;5068157;28;20065;-22
2021/09/11 04:56:34;;;;;;;13.27;8.80;;;;;;;13.77;64.97;100358.44;5068155;28;20021;-22
2021/09/11 04:59:00;;;;;;;13.10;8.65;;;;;;;13.68;65.26;100366.00;5050508;28;20426;-22
2021/09/11 05:01:25;;;;;;;16.33;9.30;;;;;;;13.70;65.01;100347.81;5068398;28;20036;-21
2021/09/11 05:03:51;;;;;;;13.27;8.57;;;;;;;13.78;65.12;100366.25;5067971;28;20032;-21
2021/09/11 05:06:16;;;;;;;14.73;10.25;;;;;;;13.84;65.39;100369.88;5068392;28;20103;-22
2021/09/11 05:08:42;;;;;;;19.13;10.65;;;;;;;14.01;64.87;100359.25;5068046;28;20033;-22
2021/09/11 05:11:07;;;;;;;17.75;10.05;;;;;;;14.03;64.68;100371.38;5068168;28;20465;-22
2021/09/11 05:13:33;;;;;;;13.65;9.93;;;;;;;13.81;65.80;100364.97;5068035;28;20054;-22
2021/09/11 05:15:59;;;;;;;14.68;10.30;;;;;;;13.62;67.11;100367.75;5067551;28;20028;-22
2021/09/11 05:18:24;;;;;;;24.60;15.00;;;;;;;14.11;65.90;100364.84;5068242;28;20041;-22
2021/09/11 05:20:50;;;;;;;17.23;10.82;;;;;;;13.95;66.64;100344.09;5067928;28;20039;-22
2021/09/11 05:23:15;;;;;;;14.32;10.02;;;;;;;13.98;66.21;100357.84;5067700;28;20408;-22
2021/09/11 05:25:41;;;;;;;15.55;9.50;;;;;;;14.07;65.83;100352.94;5067780;28;20083;-22
2021/09/11 05:28:06;;;;;;;15.80;8.88;;;;;;;14.23;65.51;100367.50;5067853;28;20488;-21
2021/09/11 05:30:32;;;;;;;13.57;9.20;;;;;;;14.14;65.34;100367.06;5067498;28;20111;-21
2021/09/11 05:32:58;;;;;;;14.40;8.70;;;;;;;14.25;64.41;100368.09;5067980;28;20403;-22
2021/09/11 05:35:24;;;;;;;13.43;9.27;;;;;;;14.32;65.02;100362.59;5067113;28;20039;-22
2021/09/11 05:37:49;;;;;;;15.10;9.18;;;;;;;14.63;63.93;100354.16;5067398;28;20032;-21
2021/09/11 05:40:15;;;;;;;13.77;8.68;;;;;;;15.21;62.74;100364.88;5067662;28;20408;-21
2021/09/11 05:42:40;;;;;;;11.90;8.20;;;;;;;15.09;61.05;100373.00;5067588;28;20029;-21
2021/09/11 05:45:06;;;;;;;14.48;9.10;;;;;;;15.24;61.92;100369.75;5067330;28;20420;-22
2021/09/11 05:47:33;;;;;;;13.20;9.02;;;;;;;15.33;61.03;100357.56;5067557;28;20373;-21
2021/09/11 05:49:59;;;;;;;10.73;8.43;;;;;;;15.46;61.01;100369.84;5067330;28;20091;-22
2021/09/11 05:52:24;;;;;;;11.43;8.02;;;;;;;15.41;60.32;100373.28;5066005;28;20036;-22
2021/09/11 05:54:50;;;;;;;12.30;7.78;;;;;;;15.64;60.20;100364.25;5067292;28;20025;-22
2021/09/11 05:57:15;;;;;;;12.93;8.25;;;;;;;15.79;59.38;100373.63;5067073;28;20039;-22
2021/09/11 05:59:41;;;;;;;51.13;31.67;;;;;;;16.11;59.42;100371.16;5048990;28;20521;-22
2021/09/11 06:02:06;;;;;;;109.72;65.70;;;;;;;16.15;58.99;100363.41;5067200;28;20458;-21
2021/09/11 06:04:32;;;;;;;192.65;112.97;;;;;;;16.31;58.83;100367.13;5067245;28;20036;-21
2021/09/11 06:06:57;;;;;;;37.88;22.45;;;;;;;16.42;58.01;100368.84;5066901;28;20033;-21
2021/09/11 06:09:23;;;;;;;52.78;27.23;;;;;;;16.36;58.58;100365.28;5049173;28;20033;-22
2021/09/11 06:11:48;;;;;;;26.83;16.48;;;;;;;16.54;57.62;100356.09;5066841;28;20040;-21
2021/09/11 06:14:14;;;;;;;15.85;8.95;;;;;;;16.78;56.68;100367.41;5067199;28;20586;-22
2021/09/11 06:16:39;;;;;;;13.75;7.70;;;;;;;16.68;57.17;100362.72;5067051;28;20039;-22
2021/09/11 06:19:05;;;;;;;14.60;8.35;;;;;;;16.73;57.03;100361.94;5067152;28;20029;-22
2021/09/11 06:21:30;;;;;;;11.60;6.50;;;;;;;16.70;55.51;100350.88;5066979;28;20029;-22
2021/09/11 06:23:56;;;;;;;13.93;7.53;;;;;;;17.01;56.01;100354.75;5066785;28;20466;-21
2021/09/11 06:26:21;;;;;;;18.52;11.40;;;;;;;17.19;54.98;100356.25;5049036;28;20097;-22
2021/09/11 06:28:47;;;;;;;10.48;6.20;;;;;;;17.42;53.30;100355.09;5066822;28;20511;-22
2021/09/11 06:31:12;;;;;;;7.40;5.18;;;;;;;17.42;53.19;100350.53;5066840;28;20035;-21
2021/09/11 06:33:38;;;;;;;8.63;5.47;;;;;;;17.53;53.06;100356.81;5066884;28;20063;-21
2021/09/11 06:36:03;;;;;;;8.68;5.90;;;;;;;17.71;52.54;100354.78;5066757;28;20032;-21
2021/09/11 06:38:29;;;;;;;13.38;5.80;;;;;;;17.56;53.67;100342.00;5066864;28;20104;-22
2021/09/11 06:40:54;;;;;;;11.95;6.88;;;;;;;17.89;53.10;100351.69;5067107;28;20047;-21
2021/09/11 06:43:20;;;;;;;9.48;5.45;;;;;;;17.89;51.87;100342.78;5066489;28;20036;-22
2021/09/11 06:45:45;;;;;;;7.10;4.32;;;;;;;17.96;51.61;100343.38;5066640;28;20474;-21
2021/09/11 06:48:11;;;;;;;11.07;4.90;;;;;;;17.89;51.60;100343.59;5067069;28;20039;-21
2021/09/11 06:50:36;;;;;;;7.35;4.95;;;;;;;18.03;52.09;100343.97;5066431;28;20028;-21
2021/09/11 06:53:02;;;;;;;9.77;4.90;;;;;;;18.09;50.65;100342.91;5066767;28;20113;-21
2021/09/11 06:55:27;;;;;;;8.73;4.30;;;;;;;18.40;49.83;100346.56;5066848;28;20031;-21
2021/09/11 06:57:53;;;;;;;8.82;4.38;;;;;;;18.72;49.70;100351.00;5048255;28;20123;-22
2021/09/11 07:00:18;;;;;;;8.73;4.32;;;;;;;18.74;48.96;100345.34;5066564;28;20035;-21
2021/09/11 07:02:44;;;;;;;7.68;4.53;;;;;;;18.72;48.93;100332.09;5048588;28;20415;-22
2021/09/11 07:05:09;;;;;;;21.85;12.95;;;;;;;19.14;48.47;100350.00;5070241;28;20032;-21
2021/09/11 07:07:35;;;;;;;9.43;4.90;;;;;;;19.21;47.58;100330.84;5070513;28;20037;-21
2021/09/11 07:10:00;;;;;;;14.60;8.05;;;;;;;19.42;46.98;100345.97;5070389;28;20029;-23
2021/09/11 07:12:26;;;;;;;6.80;3.92;;;;;;;19.66;47.51;100357.06;5070490;28;20056;-24
2021/09/11 07:14:51;;;;;;;7.22;4.00;;;;;;;19.70;46.46;100357.34;5070335;28;20020;-21
2021/09/11 07:17:17;;;;;;;6.18;3.65;;;;;;;20.05;46.47;100367.31;5069892;28;20039;-21
2021/09/11 07:19:42;;;;;;;7.15;4.00;;;;;;;20.19;46.11;100361.31;5069875;28;20465;-21
2021/09/11 07:22:08;;;;;;;6.90;3.78;;;;;;;20.25;45.61;100352.91;5070323;28;20049;-22
2021/09/11 07:24:33;;;;;;;6.10;3.15;;;;;;;20.34;44.86;100342.28;5052289;28;20028;-21
2021/09/11 07:26:59;;;;;;;6.50;3.72;;;;;;;20.64;44.08;100340.56;5070176;28;20549;-22
2021/09/11 07:29:24;;;;;;;9.00;3.85;;;;;;;20.58;43.59;100347.06;5070391;28;20029;-22
2021/09/11 07:31:50;;;;;;;7.10;3.35;;;;;;;20.32;44.05;100344.47;5069865;28;20032;-21
2021/09/11 07:34:15;;;;;;;10.75;4.60;;;;;;;20.36;44.67;100329.28;5069782;28;20028;-22
2021/09/11 07:36:41;;;;;;;6.38;4.18;;;;;;;20.74;44.59;100345.09;5069575;28;20028;-21
2021/09/11 07:39:06;;;;;;;6.18;3.45;;;;;;;20.60;43.63;100342.22;5069838;28;20035;-22
2021/09/11 07:41:33;;;;;;;8.52;3.47;;;;;;;20.73;43.31;100328.03;5069716;28;20036;-21
2021/09/11 07:43:58;;;;;;;6.70;3.33;;;;;;;20.98;43.88;100339.81;5069599;28;20031;-21
2021/09/11 07:46:24;;;;;;;14.88;3.85;;;;;;;21.22;42.09;100340.72;5069904;28;20024;-21
2021/09/11 07:48:49;;;;;;;8.10;3.80;;;;;;;21.32;41.20;100312.72;5069896;28;20036;-22
2021/09/11 07:51:15;;;;;;;8.38;3.50;;;;;;;21.55;41.11;100342.94;5069794;28;20072;-22
2021/09/11 07:53:41;;;;;;;7.68;4.00;;;;;;;21.54;40.90;100335.91;5067981;28;20056;-21
2021/09/11 07:56:06;;;;;;;8.45;3.40;;;;;;;21.51;41.76;100334.53;5069291;28;20029;-22
2021/09/11 07:58:32;;;;;;;8.00;3.63;;;;;;;21.67;40.63;100336.00;5069592;28;20036;-21
2021/09/11 08:01:00;;;;;;;6.53;3.60;;;;;;;21.78;40.63;100315.03;5069601;28;20031;-21
2021/09/11 08:03:28;;;;;;;6.93;3.30;;;;;;;22.27;41.01;100323.97;5068308;28;20911;-21
2021/09/11 08:05:55;;;;;;;6.78;3.80;;;;;;;22.43;39.39;100321.88;5068794;28;20489;-22
2021/09/11 08:08:20;;;;;;;8.07;3.30;;;;;;;22.37;40.12;100310.31;5068559;28;20039;-21
2021/09/11 08:10:46;;;;;;;9.75;3.30;;;;;;;22.79;39.82;100308.63;5069490;28;20036;-22
2021/09/11 08:13:15;;;;;;;10.85;4.60;;;;;;;22.97;39.42;100314.34;5069275;28;20401;-22
2021/09/11 08:15:44;;;;;;;5.82;3.08;;;;;;;23.25;38.61;100326.16;5068369;28;20035;-22
2021/09/11 08:18:10;;;;;;;7.63;3.20;;;;;;;22.96;36.95;100304.56;5069051;28;20060;-22
2021/09/11 08:20:35;;;;;;;8.18;3.10;;;;;;;23.41;37.42;100315.81;5069528;28;20034;-22
2021/09/11 08:23:02;;;;;;;7.13;3.70;;;;;;;23.65;37.28;100311.03;5069136;28;20036;-22
2021/09/11 08:25:27;;;;;;;7.30;2.63;;;;;;;23.57;37.65;100303.56;5068899;28;20031;-21
2021/09/11 08:27:53;;;;;;;12.55;7.15;;;;;;;23.73;36.84;100297.84;5069046;28;20037;-21
2021/09/11 08:30:18;;;;;;;8.50;3.65;;;;;;;23.53;37.77;100286.22;5068922;28;20701;-21
2021/09/11 08:32:44;;;;;;;8.15;3.38;;;;;;;23.54;37.40;100287.00;5068667;28;20036;-21
2021/09/11 08:35:12;;;;;;;6.00;3.25;;;;;;;23.53;37.93;100297.09;5068997;28;20476;-22
2021/09/11 08:37:38;;;;;;;8.05;3.08;;;;;;;23.25;37.12;100275.28;5068435;28;20040;-21
2021/09/11 08:40:04;;;;;;;8.18;3.35;;;;;;;23.20;37.55;100261.75;5068503;28;20408;-21
2021/09/11 08:42:29;;;;;;;6.35;3.17;;;;;;;23.84;36.34;100296.56;5068635;28;20029;-21
2021/09/11 08:44:55;;;;;;;6.45;2.97;;;;;;;23.97;34.99;100289.50;5068626;28;20032;-21
2021/09/11 08:47:20;;;;;;;6.47;3.05;;;;;;;24.44;35.18;100277.31;5050815;28;20043;-21
2021/09/11 08:49:46;;;;;;;6.63;2.90;;;;;;;24.77;35.94;100285.34;5068155;28;20066;-21
2021/09/11 08:52:13;;;;;;;8.38;3.22;;;;;;;24.81;34.13;100278.16;5050562;28;20607;-21
2021/09/11 08:54:38;;;;;;;6.63;2.97;;;;;;;24.64;33.88;100270.66;5068320;28;20083;-21
2021/09/11 08:57:23;;;;;;;7.88;2.97;;;;;;;24.68;33.35;100276.25;5068394;28;20119;-21
2021/09/11 08:59:49;;;;;;;7.55;2.88;;;;;;;24.91;34.83;100274.38;5068025;28;20028;-22
2021/09/11 09:02:15;;;;;;;5.43;2.85;;;;;;;25.52;33.26;100272.03;5068367;28;20125;-22
2021/09/11 09:04:55;;;;;;;5.75;2.90;;;;;;;25.32;31.43;100256.19;5034418;28;20801;-21
2021/09/11 09:07:40;;;;;;;8.13;2.67;;;;;;;25.06;32.66;100254.09;5068070;28;20042;-22
2021/09/11 09:10:06;;;;;;;5.30;2.70;;;;;;;25.41;32.89;100259.78;5068323;28;20098;-21
2021/09/11 09:12:32;;;;;;;8.50;2.67;;;;;;;25.26;31.76;100248.13;5067906;28;20454;-22
2021/09/11 09:15:02;;;;;;;7.90;2.88;;;;;;;25.52;30.95;100250.19;5068027;28;20488;-22
2021/09/11 09:17:43;;;;;;;5.88;2.40;;;;;;;25.69;29.99;100256.84;5067909;28;20150;-23
2021/09/11 09:20:29;;;;;;;5.53;2.15;;;;;;;25.67;28.34;100244.31;5067763;28;20037;-22
2021/09/11 09:23:00;;;;;;;4.88;2.10;;;;;;;25.73;29.75;100250.44;5067109;28;20036;-22
2021/09/11 09:25:29;;;;;;;5.00;2.30;;;;;;;25.71;29.33;100240.94;5067964;28;20507;-21
2021/09/11 09:27:57;;;;;;;6.35;2.35;;;;;;;25.83;26.75;100227.50;5064143;28;20093;-22
2021/09/11 09:30:33;;;;;;;5.90;2.50;;;;;;;26.06;25.81;100237.19;5063825;28;20074;-22
2021/09/11 09:32:59;;;;;;;7.15;2.58;;;;;;;25.91;26.58;100237.66;5067952;28;20036;-21
2021/09/11 09:35:25;;;;;;;6.00;2.40;;;;;;;26.11;25.94;100225.31;5067403;28;20235;-21
2021/09/11 09:38:05;;;;;;;6.20;2.60;;;;;;;26.09;26.90;100237.69;5032961;28;20036;-21
2021/09/11 09:40:38;;;;;;;6.72;2.33;;;;;;;26.01;26.21;100217.41;5067384;28;20524;-22
2021/09/11 09:43:04;;;;;;;4.35;2.63;;;;;;;26.06;27.00;100207.13;5067413;28;20039;-21
2021/09/11 09:45:30;;;;;;;4.43;2.40;;;;;;;26.28;28.28;100231.94;5067308;28;20032;-21
2021/09/11 09:48:14;;;;;;;6.22;2.50;;;;;;;26.03;27.48;100209.69;5066937;28;20032;-22
2021/09/11 09:50:41;;;;;;;6.78;2.58;;;;;;;26.05;27.31;100224.69;5067505;28;20109;-21
2021/09/11 09:53:07;;;;;;;6.85;2.65;;;;;;;26.52;26.55;100198.63;5066853;28;20064;-21
2021/09/11 09:55:33;;;;;;;6.90;2.28;;;;;;;27.04;25.30;100228.69;5067446;28;20032;-21
2021/09/11 09:58:00;;;;;;;7.00;2.78;;;;;;;27.20;24.25;100196.91;5049249;28;20048;-21
2021/09/11 10:00:26;;;;;;;7.72;2.53;;;;;;;27.11;26.07;100222.72;5067075;28;20047;-22
2021/09/11 10:02:51;;;;;;;5.57;2.50;;;;;;;27.12;23.81;100227.88;5067280;28;20041;-21
2021/09/11 10:05:22;;;;;;;7.05;2.53;;;;;;;27.16;24.98;100223.34;5067023;28;20059;-21
2021/09/11 10:08:05;;;;;;;7.47;2.50;;;;;;;27.07;24.67;100192.44;5049344;28;20060;-21
2021/09/11 10:10:33;;;;;;;3.88;2.30;;;;;;;27.91;24.64;100214.69;5049427;28;20032;-22
2021/09/11 10:13:09;;;;;;;3.33;2.10;;;;;;;28.32;24.48;100221.34;5049350;28;20472;-21
2021/09/11 10:15:36;;;;;;;5.55;2.28;;;;;;;28.28;24.14;100212.19;5067533;28;20481;-21
2021/09/11 10:18:04;;;;;;;7.45;2.33;;;;;;;28.43;23.48;100214.28;5067011;28;20059;-21
2021/09/11 10:21:07;;;;;;;5.45;2.30;;;;;;;28.44;23.58;100210.44;5067124;28;20028;-21
2021/09/11 10:23:33;;;;;;;9.15;2.70;;;;;;;28.61;24.03;100212.25;5067023;28;20548;-21
2021/09/11 10:25:58;;;;;;;5.90;2.20;;;;;;;28.40;23.31;100197.69;5049076;28;20086;-21
2021/09/11 10:28:24;;;;;;;5.68;2.30;;;;;;;28.71;22.30;100211.03;5066888;28;20028;-22
2021/09/11 10:31:09;;;;;;;6.72;2.60;;;;;;;28.17;24.49;100180.78;5066920;28;20036;-21
2021/09/11 10:33:52;;;;;;;4.53;2.28;;;;;;;27.91;22.97;100205.66;5066939;28;20827;-22
2021/09/11 10:36:46;;;;;;;4.95;2.75;;;;;;;28.26;22.16;100192.50;5066831;28;20027;-21
2021/09/11 10:39:12;;;;;;;4.32;2.58;;;;;;;28.49;22.08;100179.25;5069457;28;20083;-21
2021/09/11 10:41:37;;;;;;;5.93;2.72;;;;;;;28.09;21.80;100176.97;5070861;28;20110;-21
2021/09/11 10:44:07;;;;;;;10.80;3.40;;;;;;;27.90;23.73;100179.38;5070805;28;20032;-21
2021/09/11 10:46:47;;;;;;;7.22;3.08;;;;;;;28.51;22.85;100170.72;5071100;28;20024;-22
2021/09/11 10:49:28;;;;;;;5.78;2.85;;;;;;;29.27;22.33;100174.09;5070787;28;20028;-21
2021/09/11 10:52:03;;;;;;;6.38;2.63;;;;;;;29.72;20.79;100186.94;5070363;28;20032;-22
2021/09/11 10:54:31;;;;;;;6.40;2.97;;;;;;;29.45;20.65;100164.50;5070504;28;20057;-21
2021/09/11 10:56:59;;;;;;;5.60;2.97;;;;;;;29.70;22.42;100175.47;5070645;28;20780;-21
2021/09/11 10:59:25;;;;;;;13.48;2.90;;;;;;;29.80;20.46;100169.53;5071173;28;20874;-21
2021/09/11 11:02:25;;;;;;;8.05;2.92;;;;;;;28.91;21.77;100161.88;5070534;28;20036;-21
2021/09/11 11:05:20;;;;;;;5.05;2.70;;;;;;;29.88;21.75;100157.59;5070454;28;20039;-21
2021/09/11 11:07:48;;;;;;;5.72;2.85;;;;;;;29.54;20.69;100142.38;5067929;28;20036;-21
2021/09/11 11:10:21;;;;;;;7.82;3.50;;;;;;;29.67;20.36;100140.41;5070315;28;20091;-21
2021/09/11 11:12:49;;;;;;;7.28;2.70;;;;;;;30.25;20.79;100157.47;5070507;28;20071;-21
2021/09/11 11:15:16;;;;;;;6.50;3.20;;;;;;;30.70;20.85;100142.63;5070361;28;20602;-21
2021/09/11 11:17:46;;;;;;;9.13;3.15;;;;;;;30.35;19.66;100132.25;5070388;28;20038;-21